sensor_id;sensor_type;location;lat;lon;timestamp;P1;durP1;ratioP1;P2;durP2;ratioP2
5646;SDS011;2845;48.626;9.362;2024-03-22T00:01:57;8.20;;;4.18;;
5646;SDS011;2845;48.626;9.362;2024-03-22T00:04:29;9.35;;;3.92;;
5646;SDS011;2845;48.626;9.362;2024-03-22T00:07:03;8.50;;;4.10;;
5646;SDS011;2845;48.626;9.362;2024-03-22T00:09:35;9.77;;;4.38;;
5646;SDS011;2845;48.626;9.362;2024-03-22T00:12:08;10.10;;;4.43;;
5646;SDS011;2845;48.626;9.362;2024-03-22T00:14:42;7.10;;;3.60;;
5646;SDS011;2845;48.626;9.362;2024-03-22T00:17:15;8.68;;;3.83;;
5646;SDS011;2845;48.626;9.362;2024-03-22T00:19:47;10.45;;;4.47;;
5646;SDS011;2845;48.626;9.362;2024-03-22T00:22:20;9.43;;;4.15;;
5646;SDS011;2845;48.626;9.362;2024-03-22T00:24:53;8.10;;;3.80;;
5646;SDS011;2845;48.626;9.362;2024-03-22T00:27:26;7.22;;;3.65;;
5646;SDS011;2845;48.626;9.362;2024-03-22T00:29:59;8.63;;;3.97;;
5646;SDS011;2845;48.626;9.362;2024-03-22T00:32:32;8.75;;;4.10;;
5646;SDS011;2845;48.626;9.362;2024-03-22T00:35:05;9.30;;;4.38;;
5646;SDS011;2845;48.626;9.362;2024-03-22T00:37:39;8.15;;;4.25;;
5646;SDS011;2845;48.626;9.362;2024-03-22T00:40:11;6.63;;;3.42;;
5646;SDS011;2845;48.626;9.362;2024-03-22T00:42:44;8.45;;;3.97;;
5646;SDS011;2845;48.626;9.362;2024-03-22T00:45:18;7.80;;;3.55;;
5646;SDS011;2845;48.626;9.362;2024-03-22T00:47:51;8.20;;;3.92;;
5646;SDS011;2845;48.626;9.362;2024-03-22T00:50:23;8.48;;;3.85;;
5646;SDS011;2845;48.626;9.362;2024-03-22T00:52:56;7.15;;;4.22;;
5646;SDS011;2845;48.626;9.362;2024-03-22T00:55:29;6.22;;;3.47;;
5646;SDS011;2845;48.626;9.362;2024-03-22T00:58:02;8.23;;;3.90;;
5646;SDS011;2845;48.626;9.362;2024-03-22T01:00:36;6.53;;;3.40;;
5646;SDS011;2845;48.626;9.362;2024-03-22T01:03:09;8.48;;;4.03;;
5646;SDS011;2845;48.626;9.362;2024-03-22T01:05:41;7.70;;;2.67;;
5646;SDS011;2845;48.626;9.362;2024-03-22T01:08:15;9.10;;;3.58;;
5646;SDS011;2845;48.626;9.362;2024-03-22T01:10:48;7.53;;;3.08;;
5646;SDS011;2845;48.626;9.362;2024-03-22T01:13:21;6.97;;;3.47;;
5646;SDS011;2845;48.626;9.362;2024-03-22T01:15:54;6.75;;;3.50;;
5646;SDS011;2845;48.626;9.362;2024-03-22T01:18:28;8.48;;;3.92;;
5646;SDS011;2845;48.626;9.362;2024-03-22T01:21:00;6.93;;;3.72;;
5646;SDS011;2845;48.626;9.362;2024-03-22T01:23:33;7.35;;;3.33;;
5646;SDS011;2845;48.626;9.362;2024-03-22T01:26:05;6.32;;;2.95;;
5646;SDS011;2845;48.626;9.362;2024-03-22T01:28:39;6.43;;;3.20;;
5646;SDS011;2845;48.626;9.362;2024-03-22T01:31:13;6.35;;;2.85;;
5646;SDS011;2845;48.626;9.362;2024-03-22T01:33:45;6.75;;;3.25;;
5646;SDS011;2845;48.626;9.362;2024-03-22T01:36:18;6.50;;;3.05;;
5646;SDS011;2845;48.626;9.362;2024-03-22T01:38:50;9.02;;;2.85;;
5646;SDS011;2845;48.626;9.362;2024-03-22T01:41:23;6.90;;;2.95;;
5646;SDS011;2845;48.626;9.362;2024-03-22T01:43:56;4.65;;;2.33;;
5646;SDS011;2845;48.626;9.362;2024-03-22T01:46:31;5.03;;;2.03;;
5646;SDS011;2845;48.626;9.362;2024-03-22T01:49:03;5.80;;;2.63;;
5646;SDS011;2845;48.626;9.362;2024-03-22T01:51:36;5.90;;;2.75;;
5646;SDS011;2845;48.626;9.362;2024-03-22T01:54:09;5.88;;;2.97;;
5646;SDS011;2845;48.626;9.362;2024-03-22T01:56:42;6.32;;;2.67;;
5646;SDS011;2845;48.626;9.362;2024-03-22T01:59:15;6.93;;;2.50;;
5646;SDS011;2845;48.626;9.362;2024-03-22T02:01:50;5.70;;;2.38;;
5646;SDS011;2845;48.626;9.362;2024-03-22T02:04:23;4.80;;;2.60;;
5646;SDS011;2845;48.626;9.362;2024-03-22T02:06:56;7.43;;;2.55;;
5646;SDS011;2845;48.626;9.362;2024-03-22T02:09:28;5.18;;;2.67;;
5646;SDS011;2845;48.626;9.362;2024-03-22T02:12:01;4.40;;;1.88;;
5646;SDS011;2845;48.626;9.362;2024-03-22T02:14:33;7.22;;;2.67;;
5646;SDS011;2845;48.626;9.362;2024-03-22T02:17:08;5.80;;;2.75;;
5646;SDS011;2845;48.626;9.362;2024-03-22T02:19:40;6.97;;;2.97;;
5646;SDS011;2845;48.626;9.362;2024-03-22T02:22:13;6.78;;;2.83;;
5646;SDS011;2845;48.626;9.362;2024-03-22T02:24:47;6.28;;;2.90;;
5646;SDS011;2845;48.626;9.362;2024-03-22T02:27:20;6.20;;;2.70;;
5646;SDS011;2845;48.626;9.362;2024-03-22T02:29:52;5.45;;;2.58;;
5646;SDS011;2845;48.626;9.362;2024-03-22T02:32:25;5.22;;;2.33;;
5646;SDS011;2845;48.626;9.362;2024-03-22T02:34:57;7.18;;;2.75;;
5646;SDS011;2845;48.626;9.362;2024-03-22T02:37:30;7.00;;;2.67;;
5646;SDS011;2845;48.626;9.362;2024-03-22T02:40:05;6.63;;;2.83;;
5646;SDS011;2845;48.626;9.362;2024-03-22T02:42:40;5.80;;;2.67;;
5646;SDS011;2845;48.626;9.362;2024-03-22T02:45:12;5.07;;;2.40;;
5646;SDS011;2845;48.626;9.362;2024-03-22T02:47:45;5.80;;;2.92;;
5646;SDS011;2845;48.626;9.362;2024-03-22T02:50:17;6.45;;;3.08;;
5646;SDS011;2845;48.626;9.362;2024-03-22T02:52:51;5.85;;;2.97;;
5646;SDS011;2845;48.626;9.362;2024-03-22T02:55:24;6.30;;;3.03;;
5646;SDS011;2845;48.626;9.362;2024-03-22T02:57:57;6.53;;;2.83;;
5646;SDS011;2845;48.626;9.362;2024-03-22T03:00:29;5.25;;;2.72;;
5646;SDS011;2845;48.626;9.362;2024-03-22T03:03:03;7.07;;;3.28;;
5646;SDS011;2845;48.626;9.362;2024-03-22T03:05:36;7.93;;;3.28;;
5646;SDS011;2845;48.626;9.362;2024-03-22T03:08:09;5.95;;;3.28;;
5646;SDS011;2845;48.626;9.362;2024-03-22T03:10:42;7.18;;;2.92;;
5646;SDS011;2845;48.626;9.362;2024-03-22T03:13:16;8.02;;;3.10;;
5646;SDS011;2845;48.626;9.362;2024-03-22T03:15:49;7.20;;;3.17;;
5646;SDS011;2845;48.626;9.362;2024-03-22T03:18:22;7.80;;;3.58;;
5646;SDS011;2845;48.626;9.362;2024-03-22T03:20:54;7.05;;;3.33;;
5646;SDS011;2845;48.626;9.362;2024-03-22T03:23:27;7.00;;;3.13;;
5646;SDS011;2845;48.626;9.362;2024-03-22T03:26:00;9.63;;;3.08;;
5646;SDS011;2845;48.626;9.362;2024-03-22T03:28:33;6.95;;;3.28;;
5646;SDS011;2845;48.626;9.362;2024-03-22T03:31:06;5.80;;;3.10;;
5646;SDS011;2845;48.626;9.362;2024-03-22T03:33:39;9.43;;;3.65;;
5646;SDS011;2845;48.626;9.362;2024-03-22T03:36:11;7.38;;;4.03;;
5646;SDS011;2845;48.626;9.362;2024-03-22T03:38:44;6.05;;;3.53;;
5646;SDS011;2845;48.626;9.362;2024-03-22T03:41:18;8.45;;;3.75;;
5646;SDS011;2845;48.626;9.362;2024-03-22T03:43:51;8.65;;;4.00;;
5646;SDS011;2845;48.626;9.362;2024-03-22T03:46:23;8.07;;;4.10;;
5646;SDS011;2845;48.626;9.362;2024-03-22T03:48:56;7.57;;;3.50;;
5646;SDS011;2845;48.626;9.362;2024-03-22T03:51:28;5.97;;;2.88;;
5646;SDS011;2845;48.626;9.362;2024-03-22T03:54:01;6.70;;;3.20;;
5646;SDS011;2845;48.626;9.362;2024-03-22T03:56:35;7.53;;;4.20;;
5646;SDS011;2845;48.626;9.362;2024-03-22T03:59:11;9.00;;;4.03;;
5646;SDS011;2845;48.626;9.362;2024-03-22T04:01:43;10.05;;;3.78;;
5646;SDS011;2845;48.626;9.362;2024-03-22T04:04:17;7.47;;;3.30;;
5646;SDS011;2845;48.626;9.362;2024-03-22T04:06:49;6.63;;;3.40;;
5646;SDS011;2845;48.626;9.362;2024-03-22T04:09:22;7.55;;;3.67;;
5646;SDS011;2845;48.626;9.362;2024-03-22T04:11:55;8.45;;;4.03;;
5646;SDS011;2845;48.626;9.362;2024-03-22T04:14:30;8.77;;;3.58;;
5646;SDS011;2845;48.626;9.362;2024-03-22T04:17:02;8.30;;;3.65;;
5646;SDS011;2845;48.626;9.362;2024-03-22T04:19:36;6.68;;;3.30;;
5646;SDS011;2845;48.626;9.362;2024-03-22T04:22:08;6.57;;;3.30;;
5646;SDS011;2845;48.626;9.362;2024-03-22T04:24:41;10.10;;;3.78;;
5646;SDS011;2845;48.626;9.362;2024-03-22T04:27:14;8.13;;;4.35;;
5646;SDS011;2845;48.626;9.362;2024-03-22T04:29:47;7.30;;;3.50;;
5646;SDS011;2845;48.626;9.362;2024-03-22T04:32:20;7.40;;;3.05;;
5646;SDS011;2845;48.626;9.362;2024-03-22T04:34:53;9.35;;;3.63;;
5646;SDS011;2845;48.626;9.362;2024-03-22T04:37:26;7.90;;;3.33;;
5646;SDS011;2845;48.626;9.362;2024-03-22T04:39:59;7.95;;;3.42;;
5646;SDS011;2845;48.626;9.362;2024-03-22T04:42:33;9.00;;;3.92;;
5646;SDS011;2845;48.626;9.362;2024-03-22T04:45:06;6.80;;;3.70;;
5646;SDS011;2845;48.626;9.362;2024-03-22T04:47:40;10.80;;;3.92;;
5646;SDS011;2845;48.626;9.362;2024-03-22T04:50:12;10.93;;;4.28;;
5646;SDS011;2845;48.626;9.362;2024-03-22T04:52:45;7.25;;;3.17;;
5646;SDS011;2845;48.626;9.362;2024-03-22T04:55:18;9.57;;;4.20;;
5646;SDS011;2845;48.626;9.362;2024-03-22T04:57:52;9.77;;;3.63;;
5646;SDS011;2845;48.626;9.362;2024-03-22T05:00:24;5.95;;;3.30;;
5646;SDS011;2845;48.626;9.362;2024-03-22T05:02:57;6.35;;;2.58;;
5646;SDS011;2845;48.626;9.362;2024-03-22T05:05:30;6.50;;;3.28;;
5646;SDS011;2845;48.626;9.362;2024-03-22T05:08:03;6.53;;;3.10;;
5646;SDS011;2845;48.626;9.362;2024-03-22T05:10:36;8.25;;;3.88;;
5646;SDS011;2845;48.626;9.362;2024-03-22T05:13:11;8.00;;;4.38;;
5646;SDS011;2845;48.626;9.362;2024-03-22T05:15:43;7.07;;;3.22;;
5646;SDS011;2845;48.626;9.362;2024-03-22T05:18:16;7.00;;;3.25;;
5646;SDS011;2845;48.626;9.362;2024-03-22T05:20:48;6.93;;;3.50;;
5646;SDS011;2845;48.626;9.362;2024-03-22T05:23:21;7.07;;;3.17;;
5646;SDS011;2845;48.626;9.362;2024-03-22T05:25:54;5.88;;;3.05;;
5646;SDS011;2845;48.626;9.362;2024-03-22T05:28:28;6.07;;;3.38;;
5646;SDS011;2845;48.626;9.362;2024-03-22T05:31:01;7.22;;;3.00;;
5646;SDS011;2845;48.626;9.362;2024-03-22T05:33:35;7.18;;;3.47;;
5646;SDS011;2845;48.626;9.362;2024-03-22T05:36:07;7.05;;;3.40;;
5646;SDS011;2845;48.626;9.362;2024-03-22T05:38:40;7.28;;;3.28;;
5646;SDS011;2845;48.626;9.362;2024-03-22T05:41:12;7.65;;;3.22;;
5646;SDS011;2845;48.626;9.362;2024-03-22T05:43:47;7.15;;;3.03;;
5646;SDS011;2845;48.626;9.362;2024-03-22T05:46:19;7.00;;;3.17;;
5646;SDS011;2845;48.626;9.362;2024-03-22T05:48:52;8.40;;;3.80;;
5646;SDS011;2845;48.626;9.362;2024-03-22T05:51:24;7.72;;;3.55;;
5646;SDS011;2845;48.626;9.362;2024-03-22T05:53:57;8.00;;;3.55;;
5646;SDS011;2845;48.626;9.362;2024-03-22T05:56:30;8.85;;;3.60;;
5646;SDS011;2845;48.626;9.362;2024-03-22T05:59:04;5.80;;;2.65;;
5646;SDS011;2845;48.626;9.362;2024-03-22T06:01:36;8.20;;;3.25;;
5646;SDS011;2845;48.626;9.362;2024-03-22T06:04:10;7.28;;;3.15;;
5646;SDS011;2845;48.626;9.362;2024-03-22T06:06:42;6.80;;;2.72;;
5646;SDS011;2845;48.626;9.362;2024-03-22T06:09:16;4.90;;;2.53;;
5646;SDS011;2845;48.626;9.362;2024-03-22T06:11:55;6.75;;;3.15;;
5646;SDS011;2845;48.626;9.362;2024-03-22T06:14:29;8.15;;;3.78;;
5646;SDS011;2845;48.626;9.362;2024-03-22T06:17:03;5.88;;;2.78;;
5646;SDS011;2845;48.626;9.362;2024-03-22T06:19:37;5.43;;;2.70;;
5646;SDS011;2845;48.626;9.362;2024-03-22T06:22:09;6.05;;;2.55;;
5646;SDS011;2845;48.626;9.362;2024-03-22T06:24:44;6.00;;;3.03;;
5646;SDS011;2845;48.626;9.362;2024-03-22T06:27:16;8.18;;;3.03;;
5646;SDS011;2845;48.626;9.362;2024-03-22T06:29:51;5.97;;;2.75;;
5646;SDS011;2845;48.626;9.362;2024-03-22T06:32:23;5.80;;;2.97;;
5646;SDS011;2845;48.626;9.362;2024-03-22T06:34:56;7.47;;;3.08;;
5646;SDS011;2845;48.626;9.362;2024-03-22T06:37:28;5.75;;;2.88;;
5646;SDS011;2845;48.626;9.362;2024-03-22T06:40:01;7.10;;;2.58;;
5646;SDS011;2845;48.626;9.362;2024-03-22T06:42:36;7.45;;;3.00;;
5646;SDS011;2845;48.626;9.362;2024-03-22T06:45:10;6.13;;;2.78;;
5646;SDS011;2845;48.626;9.362;2024-03-22T06:47:43;6.72;;;3.03;;
5646;SDS011;2845;48.626;9.362;2024-03-22T06:50:16;6.63;;;2.92;;
5646;SDS011;2845;48.626;9.362;2024-03-22T06:52:49;6.22;;;2.95;;
5646;SDS011;2845;48.626;9.362;2024-03-22T06:55:22;7.93;;;2.97;;
5646;SDS011;2845;48.626;9.362;2024-03-22T06:57:54;8.77;;;3.97;;
5646;SDS011;2845;48.626;9.362;2024-03-22T07:00:29;5.22;;;3.08;;
5646;SDS011;2845;48.626;9.362;2024-03-22T07:03:02;6.78;;;4.10;;
5646;SDS011;2845;48.626;9.362;2024-03-22T07:05:36;6.53;;;3.25;;
5646;SDS011;2845;48.626;9.362;2024-03-22T07:08:08;8.75;;;3.67;;
5646;SDS011;2845;48.626;9.362;2024-03-22T07:10:41;6.82;;;3.63;;
5646;SDS011;2845;48.626;9.362;2024-03-22T07:13:14;9.20;;;4.20;;
5646;SDS011;2845;48.626;9.362;2024-03-22T07:15:49;7.60;;;3.53;;
5646;SDS011;2845;48.626;9.362;2024-03-22T07:18:21;6.43;;;3.53;;
5646;SDS011;2845;48.626;9.362;2024-03-22T07:20:54;8.90;;;3.72;;
5646;SDS011;2845;48.626;9.362;2024-03-22T07:23:27;7.53;;;3.40;;
5646;SDS011;2845;48.626;9.362;2024-03-22T07:26:00;7.20;;;3.75;;
5646;SDS011;2845;48.626;9.362;2024-03-22T07:28:32;8.18;;;3.38;;
5646;SDS011;2845;48.626;9.362;2024-03-22T07:31:06;6.63;;;2.92;;
5646;SDS011;2845;48.626;9.362;2024-03-22T07:33:39;5.32;;;2.92;;
5646;SDS011;2845;48.626;9.362;2024-03-22T07:36:12;6.07;;;2.75;;
5646;SDS011;2845;48.626;9.362;2024-03-22T07:38:47;6.28;;;3.15;;
5646;SDS011;2845;48.626;9.362;2024-03-22T07:41:21;6.05;;;3.08;;
5646;SDS011;2845;48.626;9.362;2024-03-22T07:43:53;7.45;;;3.65;;
5646;SDS011;2845;48.626;9.362;2024-03-22T07:46:28;7.97;;;2.72;;
5646;SDS011;2845;48.626;9.362;2024-03-22T07:49:00;7.55;;;3.83;;
5646;SDS011;2845;48.626;9.362;2024-03-22T07:51:35;5.82;;;3.30;;
5646;SDS011;2845;48.626;9.362;2024-03-22T07:54:07;6.97;;;3.22;;
5646;SDS011;2845;48.626;9.362;2024-03-22T07:56:40;6.45;;;3.13;;
5646;SDS011;2845;48.626;9.362;2024-03-22T07:59:13;8.63;;;3.05;;
5646;SDS011;2845;48.626;9.362;2024-03-22T08:01:47;6.28;;;3.10;;
5646;SDS011;2845;48.626;9.362;2024-03-22T08:04:19;5.60;;;3.03;;
5646;SDS011;2845;48.626;9.362;2024-03-22T08:06:52;5.78;;;3.25;;
5646;SDS011;2845;48.626;9.362;2024-03-22T08:09:25;7.30;;;3.42;;
5646;SDS011;2845;48.626;9.362;2024-03-22T08:11:58;5.50;;;2.70;;
5646;SDS011;2845;48.626;9.362;2024-03-22T08:14:30;7.82;;;3.63;;
5646;SDS011;2845;48.626;9.362;2024-03-22T08:17:04;8.80;;;3.00;;
5646;SDS011;2845;48.626;9.362;2024-03-22T08:19:40;7.65;;;2.88;;
5646;SDS011;2845;48.626;9.362;2024-03-22T08:22:13;5.63;;;2.88;;
5646;SDS011;2845;48.626;9.362;2024-03-22T08:24:45;7.22;;;3.30;;
5646;SDS011;2845;48.626;9.362;2024-03-22T08:27:19;8.02;;;3.60;;
5646;SDS011;2845;48.626;9.362;2024-03-22T08:29:51;9.75;;;3.42;;
5646;SDS011;2845;48.626;9.362;2024-03-22T08:32:25;5.75;;;3.17;;
5646;SDS011;2845;48.626;9.362;2024-03-22T08:34:58;6.90;;;3.25;;
5646;SDS011;2845;48.626;9.362;2024-03-22T08:37:31;6.75;;;2.97;;
5646;SDS011;2845;48.626;9.362;2024-03-22T08:40:05;7.20;;;3.20;;
5646;SDS011;2845;48.626;9.362;2024-03-22T08:42:39;5.30;;;2.85;;
5646;SDS011;2845;48.626;9.362;2024-03-22T08:45:11;5.60;;;2.92;;
5646;SDS011;2845;48.626;9.362;2024-03-22T08:47:46;9.02;;;3.30;;
5646;SDS011;2845;48.626;9.362;2024-03-22T08:50:18;8.35;;;2.83;;
5646;SDS011;2845;48.626;9.362;2024-03-22T08:52:52;8.82;;;3.33;;
5646;SDS011;2845;48.626;9.362;2024-03-22T08:55:24;7.68;;;2.58;;
5646;SDS011;2845;48.626;9.362;2024-03-22T08:57:57;5.13;;;2.92;;
5646;SDS011;2845;48.626;9.362;2024-03-22T09:00:29;6.18;;;2.72;;
5646;SDS011;2845;48.626;9.362;2024-03-22T09:03:04;7.65;;;3.00;;
5646;SDS011;2845;48.626;9.362;2024-03-22T09:05:36;5.65;;;2.92;;
5646;SDS011;2845;48.626;9.362;2024-03-22T09:08:09;5.28;;;2.70;;
5646;SDS011;2845;48.626;9.362;2024-03-22T09:10:41;5.57;;;2.70;;
5646;SDS011;2845;48.626;9.362;2024-03-22T09:13:14;4.93;;;2.80;;
5646;SDS011;2845;48.626;9.362;2024-03-22T09:15:47;4.97;;;2.15;;
5646;SDS011;2845;48.626;9.362;2024-03-22T09:18:22;4.75;;;2.40;;
5646;SDS011;2845;48.626;9.362;2024-03-22T09:20:55;4.40;;;2.42;;
5646;SDS011;2845;48.626;9.362;2024-03-22T09:23:28;5.28;;;2.70;;
5646;SDS011;2845;48.626;9.362;2024-03-22T09:26:00;3.97;;;1.98;;
5646;SDS011;2845;48.626;9.362;2024-03-22T09:28:33;5.32;;;2.28;;
5646;SDS011;2845;48.626;9.362;2024-03-22T09:31:06;4.45;;;2.33;;
5646;SDS011;2845;48.626;9.362;2024-03-22T09:33:40;4.68;;;2.08;;
5646;SDS011;2845;48.626;9.362;2024-03-22T09:36:14;4.70;;;2.45;;
5646;SDS011;2845;48.626;9.362;2024-03-22T09:38:47;5.85;;;2.75;;
5646;SDS011;2845;48.626;9.362;2024-03-22T09:41:21;5.18;;;2.88;;
5646;SDS011;2845;48.626;9.362;2024-03-22T09:43:57;6.32;;;2.80;;
5646;SDS011;2845;48.626;9.362;2024-03-22T09:46:31;6.45;;;2.75;;
5646;SDS011;2845;48.626;9.362;2024-03-22T09:49:07;6.68;;;2.70;;
5646;SDS011;2845;48.626;9.362;2024-03-22T09:51:41;6.38;;;2.35;;
5646;SDS011;2845;48.626;9.362;2024-03-22T09:54:16;5.15;;;2.00;;
5646;SDS011;2845;48.626;9.362;2024-03-22T09:56:48;6.10;;;2.33;;
5646;SDS011;2845;48.626;9.362;2024-03-22T09:59:23;3.95;;;2.00;;
5646;SDS011;2845;48.626;9.362;2024-03-22T10:01:55;6.55;;;2.40;;
5646;SDS011;2845;48.626;9.362;2024-03-22T10:04:31;4.65;;;1.88;;
5646;SDS011;2845;48.626;9.362;2024-03-22T10:07:03;4.15;;;2.13;;
5646;SDS011;2845;48.626;9.362;2024-03-22T10:09:37;3.45;;;1.42;;
5646;SDS011;2845;48.626;9.362;2024-03-22T10:12:09;5.60;;;2.45;;
5646;SDS011;2845;48.626;9.362;2024-03-22T10:14:42;4.15;;;1.60;;
5646;SDS011;2845;48.626;9.362;2024-03-22T10:17:15;3.40;;;1.80;;
5646;SDS011;2845;48.626;9.362;2024-03-22T10:19:49;4.00;;;1.58;;
5646;SDS011;2845;48.626;9.362;2024-03-22T10:22:22;5.22;;;1.52;;
5646;SDS011;2845;48.626;9.362;2024-03-22T10:24:56;3.40;;;1.40;;
5646;SDS011;2845;48.626;9.362;2024-03-22T10:27:32;4.65;;;1.30;;
5646;SDS011;2845;48.626;9.362;2024-03-22T10:30:06;5.03;;;2.17;;
5646;SDS011;2845;48.626;9.362;2024-03-22T10:32:42;3.53;;;1.60;;
5646;SDS011;2845;48.626;9.362;2024-03-22T10:35:17;3.20;;;1.52;;
5646;SDS011;2845;48.626;9.362;2024-03-22T10:37:50;3.53;;;1.23;;
5646;SDS011;2845;48.626;9.362;2024-03-22T10:40:23;2.85;;;1.25;;
5646;SDS011;2845;48.626;9.362;2024-03-22T10:42:56;5.78;;;1.95;;
5646;SDS011;2845;48.626;9.362;2024-03-22T10:45:29;2.75;;;1.50;;
5646;SDS011;2845;48.626;9.362;2024-03-22T10:48:03;3.35;;;1.63;;
5646;SDS011;2845;48.626;9.362;2024-03-22T10:50:41;4.10;;;1.75;;
5646;SDS011;2845;48.626;9.362;2024-03-22T10:53:15;3.40;;;1.00;;
5646;SDS011;2845;48.626;9.362;2024-03-22T10:55:51;3.22;;;1.40;;
5646;SDS011;2845;48.626;9.362;2024-03-22T10:58:26;3.92;;;1.70;;
5646;SDS011;2845;48.626;9.362;2024-03-22T11:00:59;3.38;;;1.77;;
5646;SDS011;2845;48.626;9.362;2024-03-22T11:03:32;3.40;;;1.50;;
5646;SDS011;2845;48.626;9.362;2024-03-22T11:06:08;3.78;;;1.73;;
5646;SDS011;2845;48.626;9.362;2024-03-22T11:08:41;4.80;;;1.60;;
5646;SDS011;2845;48.626;9.362;2024-03-22T11:11:13;4.43;;;1.60;;
5646;SDS011;2845;48.626;9.362;2024-03-22T11:13:46;3.33;;;1.75;;
5646;SDS011;2845;48.626;9.362;2024-03-22T11:16:20;4.75;;;1.60;;
5646;SDS011;2845;48.626;9.362;2024-03-22T11:18:53;5.95;;;1.63;;
5646;SDS011;2845;48.626;9.362;2024-03-22T11:21:26;3.35;;;1.45;;
5646;SDS011;2845;48.626;9.362;2024-03-22T11:24:01;2.35;;;1.13;;
5646;SDS011;2845;48.626;9.362;2024-03-22T11:26:34;2.80;;;1.40;;
5646;SDS011;2845;48.626;9.362;2024-03-22T11:29:08;2.10;;;1.13;;
5646;SDS011;2845;48.626;9.362;2024-03-22T11:31:40;4.10;;;1.40;;
5646;SDS011;2845;48.626;9.362;2024-03-22T11:34:13;3.85;;;1.60;;
5646;SDS011;2845;48.626;9.362;2024-03-22T11:36:47;2.97;;;1.50;;
5646;SDS011;2845;48.626;9.362;2024-03-22T11:39:21;4.38;;;1.70;;
5646;SDS011;2845;48.626;9.362;2024-03-22T11:41:54;3.83;;;1.52;;
5646;SDS011;2845;48.626;9.362;2024-03-22T11:44:28;5.78;;;1.30;;
5646;SDS011;2845;48.626;9.362;2024-03-22T11:47:00;3.30;;;1.30;;
5646;SDS011;2845;48.626;9.362;2024-03-22T11:49:34;2.05;;;1.20;;
5646;SDS011;2845;48.626;9.362;2024-03-22T11:52:09;4.15;;;1.95;;
5646;SDS011;2845;48.626;9.362;2024-03-22T11:54:42;3.20;;;1.35;;
5646;SDS011;2845;48.626;9.362;2024-03-22T11:57:14;3.05;;;1.42;;
5646;SDS011;2845;48.626;9.362;2024-03-22T11:59:48;3.95;;;1.45;;
5646;SDS011;2845;48.626;9.362;2024-03-22T12:02:20;3.40;;;1.38;;
5646;SDS011;2845;48.626;9.362;2024-03-22T12:04:53;3.38;;;1.90;;
5646;SDS011;2845;48.626;9.362;2024-03-22T12:07:28;3.85;;;1.23;;
5646;SDS011;2845;48.626;9.362;2024-03-22T12:10:01;2.13;;;1.20;;
5646;SDS011;2845;48.626;9.362;2024-03-22T12:12:34;3.38;;;1.30;;
5646;SDS011;2845;48.626;9.362;2024-03-22T12:15:08;3.33;;;1.40;;
5646;SDS011;2845;48.626;9.362;2024-03-22T12:17:40;2.53;;;1.45;;
5646;SDS011;2845;48.626;9.362;2024-03-22T12:20:14;5.03;;;1.77;;
5646;SDS011;2845;48.626;9.362;2024-03-22T12:22:48;3.03;;;1.45;;
5646;SDS011;2845;48.626;9.362;2024-03-22T12:25:21;4.25;;;1.60;;
5646;SDS011;2845;48.626;9.362;2024-03-22T12:27:55;2.88;;;1.35;;
5646;SDS011;2845;48.626;9.362;2024-03-22T12:30:28;3.13;;;1.60;;
5646;SDS011;2845;48.626;9.362;2024-03-22T12:33:01;4.82;;;2.10;;
5646;SDS011;2845;48.626;9.362;2024-03-22T12:35:34;2.83;;;1.23;;
5646;SDS011;2845;48.626;9.362;2024-03-22T12:38:09;3.60;;;1.60;;
5646;SDS011;2845;48.626;9.362;2024-03-22T12:40:46;4.40;;;1.55;;
5646;SDS011;2845;48.626;9.362;2024-03-22T12:43:19;3.40;;;1.88;;
5646;SDS011;2845;48.626;9.362;2024-03-22T12:45:51;3.85;;;1.48;;
5646;SDS011;2845;48.626;9.362;2024-03-22T12:48:25;3.53;;;1.70;;
5646;SDS011;2845;48.626;9.362;2024-03-22T12:50:57;4.60;;;1.70;;
5646;SDS011;2845;48.626;9.362;2024-03-22T12:53:31;3.65;;;1.15;;
5646;SDS011;2845;48.626;9.362;2024-03-22T12:56:04;3.13;;;1.52;;
5646;SDS011;2845;48.626;9.362;2024-03-22T12:58:38;2.33;;;1.00;;
5646;SDS011;2845;48.626;9.362;2024-03-22T13:01:10;2.17;;;1.10;;
5646;SDS011;2845;48.626;9.362;2024-03-22T13:03:43;2.55;;;1.10;;
5646;SDS011;2845;48.626;9.362;2024-03-22T13:06:16;2.08;;;1.20;;
5646;SDS011;2845;48.626;9.362;2024-03-22T13:08:50;3.47;;;1.20;;
5646;SDS011;2845;48.626;9.362;2024-03-22T13:11:23;3.13;;;0.98;;
5646;SDS011;2845;48.626;9.362;2024-03-22T13:13:56;2.58;;;1.13;;
5646;SDS011;2845;48.626;9.362;2024-03-22T13:16:28;2.80;;;1.30;;
5646;SDS011;2845;48.626;9.362;2024-03-22T13:19:01;2.90;;;1.33;;
5646;SDS011;2845;48.626;9.362;2024-03-22T13:21:35;1.95;;;1.10;;
5646;SDS011;2845;48.626;9.362;2024-03-22T13:24:09;2.97;;;1.00;;
5646;SDS011;2845;48.626;9.362;2024-03-22T13:26:42;2.28;;;1.15;;
5646;SDS011;2845;48.626;9.362;2024-03-22T13:29:15;1.73;;;0.93;;
5646;SDS011;2845;48.626;9.362;2024-03-22T13:31:47;2.67;;;1.00;;
5646;SDS011;2845;48.626;9.362;2024-03-22T13:34:21;1.92;;;0.90;;
5646;SDS011;2845;48.626;9.362;2024-03-22T13:36:53;3.83;;;1.30;;
5646;SDS011;2845;48.626;9.362;2024-03-22T13:39:28;2.45;;;1.00;;
5646;SDS011;2845;48.626;9.362;2024-03-22T13:42:01;1.80;;;1.10;;
5646;SDS011;2845;48.626;9.362;2024-03-22T13:44:34;1.80;;;0.93;;
5646;SDS011;2845;48.626;9.362;2024-03-22T13:47:06;3.15;;;1.00;;
5646;SDS011;2845;48.626;9.362;2024-03-22T13:49:39;1.77;;;0.95;;
5646;SDS011;2845;48.626;9.362;2024-03-22T13:52:12;2.00;;;0.88;;
5646;SDS011;2845;48.626;9.362;2024-03-22T13:54:47;2.85;;;1.00;;
5646;SDS011;2845;48.626;9.362;2024-03-22T13:57:19;2.00;;;0.70;;
5646;SDS011;2845;48.626;9.362;2024-03-22T13:59:52;5.78;;;1.77;;
5646;SDS011;2845;48.626;9.362;2024-03-22T14:02:25;2.58;;;1.02;;
5646;SDS011;2845;48.626;9.362;2024-03-22T14:04:58;2.05;;;0.90;;
5646;SDS011;2845;48.626;9.362;2024-03-22T14:07:30;2.28;;;0.98;;
5646;SDS011;2845;48.626;9.362;2024-03-22T14:10:06;1.33;;;0.80;;
5646;SDS011;2845;48.626;9.362;2024-03-22T14:12:39;1.00;;;0.60;;
5646;SDS011;2845;48.626;9.362;2024-03-22T14:15:13;1.52;;;0.70;;
5646;SDS011;2845;48.626;9.362;2024-03-22T14:17:45;1.25;;;0.70;;
5646;SDS011;2845;48.626;9.362;2024-03-22T14:20:19;1.77;;;0.70;;
5646;SDS011;2845;48.626;9.362;2024-03-22T14:22:51;1.85;;;1.00;;
5646;SDS011;2845;48.626;9.362;2024-03-22T14:25:26;1.52;;;0.75;;
5646;SDS011;2845;48.626;9.362;2024-03-22T14:27:58;1.55;;;0.90;;
5646;SDS011;2845;48.626;9.362;2024-03-22T14:30:31;1.30;;;0.60;;
5646;SDS011;2845;48.626;9.362;2024-03-22T14:33:04;1.67;;;0.73;;
5646;SDS011;2845;48.626;9.362;2024-03-22T14:35:37;1.75;;;0.90;;
5646;SDS011;2845;48.626;9.362;2024-03-22T14:38:10;2.35;;;0.93;;
5646;SDS011;2845;48.626;9.362;2024-03-22T14:40:44;1.98;;;0.93;;
5646;SDS011;2845;48.626;9.362;2024-03-22T14:43:17;2.67;;;0.98;;
5646;SDS011;2845;48.626;9.362;2024-03-22T14:45:50;1.30;;;0.70;;
5646;SDS011;2845;48.626;9.362;2024-03-22T14:48:23;2.42;;;0.77;;
5646;SDS011;2845;48.626;9.362;2024-03-22T14:50:56;1.02;;;0.60;;
5646;SDS011;2845;48.626;9.362;2024-03-22T14:53:29;1.67;;;0.77;;
5646;SDS011;2845;48.626;9.362;2024-03-22T14:56:03;2.20;;;0.73;;
5646;SDS011;2845;48.626;9.362;2024-03-22T14:58:39;2.25;;;1.02;;
5646;SDS011;2845;48.626;9.362;2024-03-22T15:01:11;1.05;;;0.52;;
5646;SDS011;2845;48.626;9.362;2024-03-22T15:03:45;4.05;;;0.73;;
5646;SDS011;2845;48.626;9.362;2024-03-22T15:06:18;1.65;;;0.75;;
5646;SDS011;2845;48.626;9.362;2024-03-22T15:08:50;3.05;;;1.25;;
5646;SDS011;2845;48.626;9.362;2024-03-22T15:11:25;2.50;;;0.80;;
5646;SDS011;2845;48.626;9.362;2024-03-22T15:13:57;1.27;;;0.70;;
5646;SDS011;2845;48.626;9.362;2024-03-22T15:16:30;3.08;;;0.90;;
5646;SDS011;2845;48.626;9.362;2024-03-22T15:19:02;1.58;;;0.80;;
5646;SDS011;2845;48.626;9.362;2024-03-22T15:21:35;1.38;;;0.68;;
5646;SDS011;2845;48.626;9.362;2024-03-22T15:24:08;1.83;;;0.68;;
5646;SDS011;2845;48.626;9.362;2024-03-22T15:26:42;1.58;;;0.75;;
5646;SDS011;2845;48.626;9.362;2024-03-22T15:29:14;1.30;;;0.70;;
5646;SDS011;2845;48.626;9.362;2024-03-22T15:31:47;1.70;;;0.70;;
5646;SDS011;2845;48.626;9.362;2024-03-22T15:34:20;2.38;;;1.10;;
5646;SDS011;2845;48.626;9.362;2024-03-22T15:36:54;2.58;;;1.20;;
5646;SDS011;2845;48.626;9.362;2024-03-22T15:39:26;3.00;;;1.42;;
5646;SDS011;2845;48.626;9.362;2024-03-22T15:42:00;3.40;;;1.60;;
5646;SDS011;2845;48.626;9.362;2024-03-22T15:44:33;4.85;;;1.73;;
5646;SDS011;2845;48.626;9.362;2024-03-22T15:47:06;4.68;;;2.00;;
5646;SDS011;2845;48.626;9.362;2024-03-22T15:49:39;2.90;;;1.60;;
5646;SDS011;2845;48.626;9.362;2024-03-22T15:52:12;3.47;;;1.73;;